createdAt,value
2019-02-23T00:01:32.865Z,99.90
2019-02-23T00:04:02.678Z,99.90
2019-02-23T00:06:32.530Z,99.90
2019-02-23T00:09:02.257Z,99.90
2019-02-23T00:11:33.646Z,99.90
2019-02-23T00:14:04.492Z,99.90
2019-02-23T00:16:34.304Z,99.90
2019-02-23T00:19:04.378Z,99.90
2019-02-23T00:21:34.207Z,99.90
2019-02-23T00:24:03.945Z,99.90
2019-02-23T00:26:33.761Z,99.90
2019-02-23T00:29:03.641Z,99.90
2019-02-23T00:31:33.453Z,99.90
2019-02-23T00:34:03.265Z,99.90
2019-02-23T00:36:33.002Z,99.90
2019-02-23T00:39:02.830Z,99.90
2019-02-23T00:41:34.331Z,99.90
2019-02-23T00:44:04.150Z,99.90
2019-02-23T00:46:33.884Z,99.90
2019-02-23T00:49:03.698Z,99.90
2019-02-23T00:51:33.774Z,99.90
2019-02-23T00:54:03.589Z,99.90
2019-02-23T00:56:33.413Z,99.90
2019-02-23T00:59:03.402Z,99.90
2019-02-23T01:01:33.378Z,99.90
2019-02-23T01:04:03.488Z,99.90
2019-02-23T01:06:33.477Z,99.90
2019-02-23T01:09:04.288Z,99.90
2019-02-23T01:11:35.817Z,99.90
2019-02-23T01:14:05.634Z,99.90
2019-02-23T01:16:35.633Z,99.90
2019-02-23T01:19:05.441Z,99.90
2019-02-23T01:21:35.341Z,99.90
2019-02-23T01:24:05.330Z,99.90
2019-02-23T01:26:35.150Z,99.90
2019-02-23T01:29:05.033Z,99.90
2019-02-23T01:31:34.849Z,99.90
2019-02-23T01:34:04.756Z,99.90
2019-02-23T01:36:34.502Z,99.90
2019-02-23T01:39:05.903Z,99.90
2019-02-23T01:41:36.427Z,99.90
2019-02-23T01:44:06.242Z,99.90
2019-02-23T01:46:35.994Z,99.90
2019-02-23T01:49:05.897Z,99.90
2019-02-23T01:51:35.971Z,99.90
2019-02-23T01:54:05.781Z,99.90
2019-02-23T01:56:35.682Z,99.90
2019-02-23T01:59:05.834Z,99.90
2019-02-23T02:01:35.728Z,99.90
2019-02-23T02:04:05.901Z,99.90
2019-02-23T02:06:35.937Z,99.90
2019-02-23T02:09:06.439Z,99.90
2019-02-23T02:11:36.727Z,99.90
2019-02-23T02:14:08.145Z,99.90
2019-02-23T02:16:39.069Z,99.90
2019-02-23T02:19:09.446Z,99.90
2019-02-23T02:21:39.724Z,99.90
2019-02-23T02:24:09.637Z,99.90
2019-02-23T02:26:39.627Z,99.90
2019-02-23T02:29:09.601Z,99.90
2019-02-23T02:31:39.585Z,99.90
2019-02-23T02:34:14.570Z,99.90
2019-02-23T02:36:44.408Z,99.90
2019-02-23T02:39:16.140Z,99.90
2019-02-23T02:41:45.974Z,99.90
2019-02-23T02:44:15.799Z,99.90
2019-02-23T02:46:45.720Z,99.90
2019-02-23T02:49:15.470Z,99.90
2019-02-23T02:51:45.297Z,99.90
2019-02-23T02:54:15.125Z,99.90
2019-02-23T02:56:44.937Z,99.90
2019-02-23T02:59:14.951Z,99.90
2019-02-23T03:01:44.843Z,99.90
2019-02-23T03:04:14.667Z,99.90
2019-02-23T03:06:44.397Z,99.90
2019-02-23T03:09:14.163Z,99.90
2019-02-23T03:11:44.216Z,99.90
2019-02-23T03:14:13.978Z,99.90
2019-02-23T03:16:43.867Z,99.90
2019-02-23T03:19:13.684Z,99.90
2019-02-23T03:21:43.623Z,99.90
2019-02-23T03:24:13.490Z,99.90
2019-02-23T03:26:43.521Z,99.90
2019-02-23T03:29:13.437Z,99.90
2019-02-23T03:31:43.257Z,99.90
2019-02-23T03:34:13.314Z,99.90
2019-02-23T03:36:43.131Z,99.90
2019-02-23T03:39:13.269Z,99.90
2019-02-23T03:41:43.028Z,99.90
2019-02-23T03:44:12.774Z,99.90
2019-02-23T03:46:42.595Z,99.90
2019-02-23T03:49:12.417Z,99.90
2019-02-23T03:51:42.575Z,99.90
2019-02-23T03:54:12.492Z,99.90
2019-02-23T03:56:42.231Z,99.90
2019-02-23T03:59:12.519Z,99.90
2019-02-23T04:01:42.336Z,99.90
2019-02-23T04:04:12.387Z,99.90
2019-02-23T04:06:42.211Z,99.90
2019-02-23T04:09:11.958Z,99.90
2019-02-23T04:11:41.787Z,99.90
2019-02-23T04:14:11.541Z,99.90
2019-02-23T04:16:41.364Z,99.90
2019-02-23T04:19:11.367Z,99.90
2019-02-23T04:21:41.102Z,99.90
2019-02-23T04:24:10.934Z,99.90
2019-02-23T04:26:40.742Z,99.90
2019-02-23T04:29:10.489Z,99.90
2019-02-23T04:31:40.494Z,99.90
2019-02-23T04:34:10.253Z,99.90
2019-02-23T04:36:39.989Z,99.90
2019-02-23T04:39:09.742Z,99.90
2019-02-23T04:41:39.494Z,99.90
2019-02-23T04:44:09.244Z,99.90
2019-02-23T04:46:38.986Z,99.90
2019-02-23T04:49:08.985Z,99.90
2019-02-23T04:51:38.817Z,99.90
2019-02-23T04:54:08.562Z,99.90
2019-02-23T04:56:38.326Z,99.90
2019-02-23T04:59:08.334Z,99.90
2019-02-23T05:01:38.094Z,99.90
2019-02-23T05:04:07.971Z,99.90
2019-02-23T05:06:38.038Z,99.90
2019-02-23T05:09:08.265Z,99.90
2019-02-23T05:11:38.038Z,99.90
2019-02-23T05:14:07.846Z,99.90
2019-02-23T05:16:37.634Z,99.90
2019-02-23T05:19:07.457Z,99.90
2019-02-23T05:21:37.201Z,99.90
2019-02-23T05:24:07.044Z,99.90
2019-02-23T05:26:36.782Z,99.90
2019-02-23T05:29:06.607Z,99.90
2019-02-23T05:31:36.433Z,99.90
2019-02-23T05:34:06.190Z,99.90
2019-02-23T05:36:36.249Z,99.90
2019-02-23T05:39:07.097Z,99.90
2019-02-23T05:41:36.906Z,99.90
2019-02-23T05:44:06.741Z,99.90
2019-02-23T05:46:36.494Z,99.90
2019-02-23T05:49:06.333Z,99.90
2019-02-23T05:51:38.843Z,99.90
2019-02-23T05:54:07.662Z,99.90
2019-02-23T05:56:37.674Z,99.90
2019-02-23T05:59:07.502Z,99.90
2019-02-23T06:01:37.258Z,99.90
2019-02-23T06:04:07.017Z,99.90
2019-02-23T06:06:36.887Z,99.90
2019-02-23T06:09:06.782Z,99.90
2019-02-23T06:11:36.864Z,99.90
2019-02-23T06:14:06.684Z,99.90
2019-02-23T06:16:37.418Z,99.90
2019-02-23T06:19:07.242Z,99.90
2019-02-23T06:21:37.966Z,99.90
2019-02-23T06:24:07.718Z,99.90
2019-02-23T06:26:37.545Z,99.90
2019-02-23T06:29:07.293Z,99.90
2019-02-23T06:31:37.171Z,99.90
2019-02-23T06:34:15.426Z,99.90
2019-02-23T06:36:38.380Z,99.90
2019-02-23T06:39:08.186Z,99.90
2019-02-23T06:41:38.174Z,99.90
2019-02-23T06:44:08.139Z,99.90
2019-02-23T06:46:37.909Z,99.90
2019-02-23T06:49:07.731Z,99.90
2019-02-23T06:51:38.074Z,99.90
2019-02-23T06:54:07.890Z,99.90
2019-02-23T06:56:37.648Z,99.90
2019-02-23T06:59:07.561Z,99.90
2019-02-23T07:01:37.394Z,99.90
2019-02-23T07:04:07.176Z,99.90
2019-02-23T07:06:37.979Z,99.90
2019-02-23T07:09:08.297Z,99.90
2019-02-23T07:11:38.508Z,99.90
2019-02-23T07:14:08.454Z,99.90
2019-02-23T07:16:38.354Z,99.90
2019-02-23T07:19:08.178Z,99.90
2019-02-23T07:21:37.939Z,99.90
2019-02-23T07:24:07.745Z,99.90
2019-02-23T07:26:37.951Z,99.90
2019-02-23T07:29:07.754Z,99.90
2019-02-23T07:31:37.529Z,99.90
2019-02-23T07:34:07.361Z,99.90
2019-02-23T07:36:37.102Z,99.90
2019-02-23T07:39:06.910Z,97.60
2019-02-23T07:41:36.857Z,97.80
2019-02-23T07:44:06.734Z,99.80
2019-02-23T07:46:36.755Z,99.20
2019-02-23T07:49:06.865Z,98.40
2019-02-23T07:51:36.838Z,95.80
2019-02-23T07:54:07.113Z,94.30
2019-02-23T07:56:37.311Z,95.50
2019-02-23T07:59:07.070Z,96.20
2019-02-23T08:01:36.838Z,94.60
2019-02-23T08:04:06.645Z,92.90
2019-02-23T08:06:36.382Z,81.80
2019-02-23T08:09:07.302Z,66.90
2019-02-23T08:11:37.830Z,72.90
2019-02-23T08:14:07.642Z,78.20
2019-02-23T08:16:37.812Z,67.60
2019-02-23T08:19:07.554Z,58.80
2019-02-23T08:21:37.361Z,60.50
2019-02-23T08:24:08.338Z,70.80
2019-02-23T08:26:38.093Z,63.50
2019-02-23T08:29:07.981Z,64.50
2019-02-23T08:31:37.805Z,66.00
2019-02-23T08:34:07.783Z,65.30
2019-02-23T08:36:37.634Z,69.20
2019-02-23T08:39:07.687Z,70.30
2019-02-23T08:41:38.550Z,67.40
2019-02-23T08:44:08.307Z,67.70
2019-02-23T08:46:38.197Z,64.50
2019-02-23T08:49:07.950Z,66.80
2019-02-23T08:51:37.763Z,74.30
2019-02-23T08:54:07.596Z,70.20
2019-02-23T08:56:37.499Z,63.50
2019-02-23T08:59:07.247Z,69.10
2019-02-23T09:01:36.997Z,74.80
2019-02-23T09:04:06.790Z,74.60
2019-02-23T09:06:36.543Z,66.00
2019-02-23T09:09:08.216Z,69.80
2019-02-23T09:11:38.161Z,72.60
2019-02-23T09:14:07.983Z,72.40
2019-02-23T09:16:37.994Z,75.40
2019-02-23T09:19:07.874Z,72.60
2019-02-23T09:21:38.105Z,73.40
2019-02-23T09:24:07.997Z,89.40
2019-02-23T09:26:38.033Z,61.10
2019-02-23T09:29:08.042Z,61.10
2019-02-23T09:31:39.026Z,64.70
2019-02-23T09:34:11.483Z,62.90
2019-02-23T09:36:41.550Z,55.10
2019-02-23T09:39:11.438Z,60.60
2019-02-23T09:41:41.811Z,60.40
2019-02-23T09:44:11.890Z,61.20
2019-02-23T09:46:42.235Z,57.60
2019-02-23T09:49:11.979Z,61.10
2019-02-23T09:51:41.898Z,66.20
2019-02-23T09:54:11.830Z,71.30
2019-02-23T09:56:41.650Z,63.20
2019-02-23T09:59:11.785Z,55.30
2019-02-23T10:01:41.988Z,51.80
2019-02-23T10:04:12.155Z,51.00
2019-02-23T10:06:42.304Z,53.40
2019-02-23T10:09:12.254Z,57.30
2019-02-23T10:11:42.465Z,60.20
2019-02-23T10:14:12.515Z,59.20
2019-02-23T10:16:42.469Z,59.20
2019-02-23T10:19:12.344Z,58.60
2019-02-23T10:21:42.304Z,62.70
2019-02-23T10:24:12.433Z,61.60
2019-02-23T10:26:42.663Z,60.50
2019-02-23T10:29:13.505Z,60.10
2019-02-23T10:31:44.314Z,52.30
2019-02-23T10:34:14.350Z,51.90
2019-02-23T10:36:44.203Z,51.30
2019-02-23T10:39:14.094Z,46.60
2019-02-23T10:41:44.178Z,55.30
2019-02-23T10:44:14.014Z,48.70
2019-02-23T10:46:43.864Z,44.40
2019-02-23T10:49:13.686Z,44.50
2019-02-23T10:51:43.435Z,47.20
2019-02-23T10:54:13.190Z,50.50
2019-02-23T10:56:43.091Z,44.80
2019-02-23T10:59:12.953Z,46.10
2019-02-23T11:01:42.779Z,48.00
2019-02-23T11:04:12.798Z,46.50
2019-02-23T11:06:42.786Z,48.70
2019-02-23T11:09:18.531Z,48.80
2019-02-23T11:11:48.556Z,47.80
2019-02-23T11:14:19.386Z,48.40
2019-02-23T11:16:49.306Z,46.30
2019-02-23T11:19:19.631Z,46.10
2019-02-23T11:21:49.438Z,43.40
2019-02-23T11:24:19.390Z,48.00
2019-02-23T11:26:49.210Z,48.60
2019-02-23T11:29:19.114Z,44.80
2019-02-23T11:31:49.787Z,47.00
2019-02-23T11:34:19.625Z,42.40
2019-02-23T11:36:50.590Z,43.70
2019-02-23T11:39:20.418Z,43.40
2019-02-23T11:41:50.237Z,46.50
2019-02-23T11:44:21.030Z,47.00
2019-02-23T11:46:59.819Z,45.30
2019-02-23T11:49:22.737Z,44.90
2019-02-23T11:51:52.803Z,45.70
2019-02-23T11:54:22.572Z,42.60
2019-02-23T11:56:52.506Z,41.70
2019-02-23T11:59:22.848Z,43.70
2019-02-23T12:01:52.591Z,41.80
2019-02-23T12:04:22.450Z,38.60
2019-02-23T12:06:52.237Z,38.40
2019-02-23T12:09:22.038Z,41.50
2019-02-23T12:11:51.926Z,38.40
2019-02-23T12:14:21.686Z,41.40
2019-02-23T12:16:51.514Z,37.60
2019-02-23T12:19:21.277Z,39.10
2019-02-23T12:21:51.322Z,40.10
2019-02-23T12:24:21.518Z,40.50
2019-02-23T12:26:51.997Z,37.00
2019-02-23T12:29:22.313Z,38.70
2019-02-23T12:31:52.519Z,34.60
2019-02-23T12:34:22.598Z,36.50
2019-02-23T12:36:52.514Z,41.10
2019-02-23T12:39:22.782Z,37.60
2019-02-23T12:41:52.673Z,38.90
2019-02-23T12:44:22.815Z,35.80
2019-02-23T12:46:52.677Z,36.20
2019-02-23T12:49:22.781Z,35.50
2019-02-23T12:51:52.598Z,36.00
2019-02-23T12:54:25.782Z,39.60
2019-02-23T12:56:55.818Z,36.90
2019-02-23T12:59:25.972Z,36.60
2019-02-23T13:01:56.208Z,35.90
2019-02-23T13:04:26.125Z,33.10
2019-02-23T13:06:59.496Z,32.30
2019-02-23T13:09:31.875Z,31.80
2019-02-23T13:12:22.875Z,34.30
2019-02-23T13:15:05.926Z,37.90
2019-02-23T13:18:23.147Z,34.50
2019-02-23T13:21:08.574Z,34.50
2019-02-23T13:23:48.560Z,36.70
2019-02-23T13:26:47.867Z,38.80
2019-02-23T13:29:35.825Z,38.20
2019-02-23T13:32:54.618Z,38.80
2019-02-23T13:36:15.061Z,39.00
2019-02-23T13:39:05.342Z,39.90
2019-02-23T13:42:24.652Z,41.30
2019-02-23T13:45:19.266Z,39.40
2019-02-23T13:48:22.830Z,37.60
2019-02-23T13:51:48.934Z,35.80
2019-02-23T13:55:05.660Z,34.80
2019-02-23T13:58:12.715Z,37.50
2019-02-23T14:01:26.770Z,37.60
2019-02-23T14:04:33.900Z,37.20
2019-02-23T14:07:35.723Z,41.10
2019-02-23T14:10:44.374Z,38.60
2019-02-23T14:13:51.410Z,39.80
2019-02-23T14:17:07.538Z,35.00
2019-02-23T14:20:10.441Z,36.20
2019-02-23T14:23:31.952Z,34.90
2019-02-23T14:26:50.866Z,32.80
2019-02-23T14:29:59.262Z,34.70
2019-02-23T14:33:14.457Z,34.60
2019-02-23T14:36:06.888Z,35.90
2019-02-23T14:39:07.731Z,33.20
2019-02-23T14:41:57.734Z,32.80
2019-02-23T14:44:43.831Z,33.70
2019-02-23T14:47:29.903Z,33.30
2019-02-23T14:51:03.111Z,36.10
2019-02-23T14:54:19.014Z,36.50
2019-02-23T14:57:16.893Z,35.30
2019-02-23T15:00:25.646Z,36.40
2019-02-23T15:03:39.698Z,36.30
2019-02-23T15:06:48.279Z,35.80
2019-02-23T15:10:08.799Z,36.00
2019-02-23T15:13:13.607Z,40.50
2019-02-23T15:16:26.751Z,38.00
2019-02-23T15:19:20.752Z,38.70
2019-02-23T15:22:48.755Z,37.90
2019-02-23T15:26:14.562Z,38.20
2019-02-23T15:29:36.497Z,36.60
2019-02-23T15:32:48.942Z,37.90
2019-02-23T15:35:52.806Z,37.30
2019-02-23T15:38:45.222Z,36.50
2019-02-23T15:41:59.086Z,37.40
2019-02-23T15:45:09.973Z,37.70
2019-02-23T15:48:06.729Z,36.10
2019-02-23T15:50:37.317Z,37.10
2019-02-23T15:53:07.925Z,35.40
2019-02-23T15:55:38.034Z,36.90
2019-02-23T15:58:08.142Z,38.00
2019-02-23T16:00:38.142Z,37.10
2019-02-23T16:03:07.982Z,37.60
2019-02-23T16:05:37.822Z,37.30
2019-02-23T16:08:09.314Z,37.70
2019-02-23T16:10:39.253Z,38.20
2019-02-23T16:13:09.114Z,39.70
2019-02-23T16:15:39.248Z,40.00
2019-02-23T16:18:09.491Z,40.50
2019-02-23T16:20:39.465Z,41.50
2019-02-23T16:23:09.537Z,40.60
2019-02-23T16:25:39.434Z,40.00
2019-02-23T16:28:09.542Z,39.80
2019-02-23T16:30:39.501Z,39.90
2019-02-23T16:33:09.535Z,40.10
2019-02-23T16:35:40.507Z,41.20
2019-02-23T16:38:10.334Z,41.70
2019-02-23T16:40:40.148Z,42.00
2019-02-23T16:43:10.255Z,42.30
2019-02-23T16:45:40.014Z,43.30
2019-02-23T16:48:09.839Z,46.80
2019-02-23T16:50:39.643Z,45.50
2019-02-23T16:53:09.683Z,46.00
2019-02-23T16:55:51.445Z,47.10
2019-02-23T16:58:11.054Z,48.20
2019-02-23T17:00:41.014Z,49.00
2019-02-23T17:03:10.777Z,49.40
2019-02-23T17:05:40.546Z,49.90
2019-02-23T17:08:10.329Z,50.40
2019-02-23T17:10:40.230Z,51.30
2019-02-23T17:13:10.107Z,52.70
2019-02-23T17:15:39.918Z,53.00
2019-02-23T17:18:10.145Z,55.10
2019-02-23T17:20:39.958Z,57.30
2019-02-23T17:23:09.776Z,59.10
2019-02-23T17:25:39.602Z,59.70
2019-02-23T17:28:10.356Z,60.90
2019-02-23T17:30:40.163Z,60.80
2019-02-23T17:33:10.322Z,60.80
2019-02-23T17:35:40.130Z,60.50
2019-02-23T17:38:16.123Z,62.40
2019-02-23T17:40:41.806Z,60.40
2019-02-23T17:43:11.849Z,62.30
2019-02-23T17:45:41.850Z,63.60
2019-02-23T17:48:11.595Z,67.60
2019-02-23T17:50:41.790Z,73.50
2019-02-23T17:53:11.841Z,78.30
2019-02-23T17:55:41.711Z,81.90
2019-02-23T17:58:11.474Z,83.70
2019-02-23T18:00:41.655Z,86.00
2019-02-23T18:03:11.566Z,87.80
2019-02-23T18:05:41.650Z,90.70
2019-02-23T18:08:11.530Z,92.70
2019-02-23T18:10:41.422Z,93.40
2019-02-23T18:13:12.002Z,93.80
2019-02-23T18:15:42.740Z,95.50
2019-02-23T18:18:13.090Z,95.70
2019-02-23T18:20:43.162Z,98.50
2019-02-23T18:23:13.135Z,99.90
2019-02-23T18:25:42.998Z,99.90
2019-02-23T18:28:13.486Z,99.90
2019-02-23T18:30:43.663Z,99.90
2019-02-23T18:33:13.443Z,99.90
2019-02-23T18:35:43.271Z,99.90
2019-02-23T18:38:13.066Z,99.90
2019-02-23T18:40:43.590Z,99.90
2019-02-23T18:43:14.506Z,99.90
2019-02-23T18:45:47.412Z,99.90
2019-02-23T18:48:16.186Z,99.90
2019-02-23T18:50:46.210Z,99.90
2019-02-23T18:53:16.361Z,99.90
2019-02-23T18:55:46.477Z,99.90
2019-02-23T18:58:17.478Z,99.90
2019-02-23T19:00:47.338Z,99.90
2019-02-23T19:03:17.271Z,99.90
2019-02-23T19:05:49.818Z,99.90
2019-02-23T19:08:18.647Z,99.90
2019-02-23T19:10:48.551Z,99.90
2019-02-23T19:13:18.671Z,99.90
2019-02-23T19:15:49.686Z,99.90
2019-02-23T19:18:20.072Z,99.90
2019-02-23T19:20:50.210Z,99.90
2019-02-23T19:23:20.112Z,99.90
2019-02-23T19:25:49.927Z,99.90
2019-02-23T19:28:20.073Z,99.90
2019-02-23T19:30:50.042Z,99.90
2019-02-23T19:33:20.692Z,99.90
2019-02-23T19:35:51.032Z,99.90
2019-02-23T19:38:21.286Z,99.90
2019-02-23T19:40:51.349Z,99.90
2019-02-23T19:43:21.106Z,99.90
2019-02-23T19:45:51.281Z,99.90
2019-02-23T19:48:21.129Z,99.90
2019-02-23T19:50:54.839Z,99.90
2019-02-23T19:53:24.673Z,99.90
2019-02-23T19:55:54.491Z,99.90
2019-02-23T19:58:24.491Z,99.90
2019-02-23T20:00:55.992Z,99.90
2019-02-23T20:03:26.810Z,99.90
2019-02-23T20:05:56.631Z,99.90
2019-02-23T20:08:26.401Z,99.90
2019-02-23T20:10:56.155Z,99.90
2019-02-23T20:13:25.925Z,99.90
2019-02-23T20:15:55.779Z,99.90
2019-02-23T20:18:25.606Z,99.90
2019-02-23T20:20:55.364Z,99.90
2019-02-23T20:23:25.202Z,99.90
2019-02-23T20:25:54.961Z,99.90
2019-02-23T20:28:24.950Z,99.90
2019-02-23T20:30:54.813Z,99.90
2019-02-23T20:33:24.580Z,99.90
2019-02-23T20:35:55.486Z,99.90
2019-02-23T20:38:25.321Z,99.90
2019-02-23T20:40:55.439Z,99.90
2019-02-23T20:43:25.329Z,99.90
2019-02-23T20:45:55.167Z,99.90
2019-02-23T20:48:25.105Z,99.90
2019-02-23T20:50:54.950Z,99.90
2019-02-23T20:53:24.702Z,99.90
2019-02-23T20:55:54.565Z,99.90
2019-02-23T20:58:24.362Z,99.90
2019-02-23T21:00:54.550Z,99.90
2019-02-23T21:03:24.712Z,99.90
2019-02-23T21:05:55.252Z,99.90
2019-02-23T21:08:28.109Z,99.90
2019-02-23T21:10:58.010Z,99.90
2019-02-23T21:13:27.801Z,99.90
2019-02-23T21:15:58.606Z,99.90
2019-02-23T21:18:28.482Z,99.90
2019-02-23T21:20:58.446Z,99.90
2019-02-23T21:23:28.701Z,99.90
2019-02-23T21:25:58.615Z,99.90
2019-02-23T21:28:28.525Z,99.90
2019-02-23T21:30:58.758Z,99.90
2019-02-23T21:33:28.632Z,99.90
2019-02-23T21:35:58.928Z,99.90
2019-02-23T21:38:29.877Z,99.90
2019-02-23T21:40:59.709Z,99.90
2019-02-23T21:43:30.186Z,99.90
2019-02-23T21:45:59.983Z,99.90
2019-02-23T21:48:30.287Z,99.90
2019-02-23T21:51:00.131Z,99.90
2019-02-23T21:53:29.898Z,99.90
2019-02-23T21:55:59.690Z,99.90
2019-02-23T21:58:29.845Z,99.90
2019-02-23T22:00:59.751Z,99.90
2019-02-23T22:03:29.560Z,99.90
2019-02-23T22:05:59.478Z,99.90
2019-02-23T22:08:29.226Z,99.90
2019-02-23T22:10:59.649Z,99.90
2019-02-23T22:13:29.471Z,99.90
2019-02-23T22:16:00.322Z,99.90
2019-02-23T22:18:30.390Z,99.90
2019-02-23T22:21:00.243Z,99.90
2019-02-23T22:23:30.330Z,99.90
2019-02-23T22:26:00.229Z,99.90
2019-02-23T22:28:30.383Z,99.90
2019-02-23T22:31:00.209Z,99.90
2019-02-23T22:33:30.271Z,99.90
2019-02-23T22:36:00.230Z,99.90
2019-02-23T22:38:29.978Z,99.90
2019-02-23T22:40:59.801Z,99.90
2019-02-23T22:43:29.657Z,99.90
2019-02-23T22:45:59.462Z,99.90
2019-02-23T22:48:29.375Z,99.90
2019-02-23T22:50:59.117Z,99.90
2019-02-23T22:53:28.866Z,99.90
2019-02-23T22:55:59.666Z,99.90
2019-02-23T22:58:29.439Z,99.90
2019-02-23T23:01:01.982Z,99.90
2019-02-23T23:03:33.434Z,99.90
2019-02-23T23:06:03.258Z,99.90
2019-02-23T23:08:33.086Z,99.90
2019-02-23T23:11:02.902Z,99.90
2019-02-23T23:13:32.915Z,99.90
2019-02-23T23:16:02.739Z,99.90
2019-02-23T23:18:32.573Z,99.90
2019-02-23T23:21:02.310Z,99.90
2019-02-23T23:23:32.220Z,99.90
2019-02-23T23:26:02.026Z,99.90
2019-02-23T23:28:31.770Z,99.90
2019-02-23T23:31:01.506Z,99.90
2019-02-23T23:33:32.251Z,99.90
2019-02-23T23:36:02.049Z,99.90
2019-02-23T23:38:31.807Z,99.90
2019-02-23T23:41:01.855Z,99.90
2019-02-23T23:43:31.906Z,99.90
2019-02-23T23:46:01.910Z,99.90
2019-02-23T23:48:31.998Z,99.90
2019-02-23T23:51:02.367Z,99.90
2019-02-23T23:53:32.318Z,99.90
2019-02-23T23:56:02.465Z,99.90
2019-02-23T23:58:32.913Z,99.90
